Informes de METARS cercanos

 

LEAL - Alicante/El Alte, Spain
Distance from station: SSE 60km
Actualización: 25/10/2021 09:00
Poco nuboso
Poco nuboso
 Viento del O
Viento: O 11 km/h
Temperatura: 14°C
Rocío: 12°C
Humedad: 88%
Barómetro: 1021 hPa
Clouds: Poco nuboso
Visibility: 10 km
Cloud details: Poco nuboso 732 m
2021/10/25 07:00 LEAL 250700Z 27006KT 9999 FEW024 14/12 Q1021 NOSIG
LEVC - Valencia (civ/Mi, Spain
Distance from station: NNE 84km
Actualización: 25/10/2021 09:00
Poco nuboso
Poco nuboso
 Viento del O
Viento: O 7 km/h
Temperatura: 11°C
Rocío: 10°C
Humedad: 94%
Barómetro: 1022 hPa
Clouds: Poco nuboso
Visibility: 10 km
Cloud details: Poco nuboso 366 m
2021/10/25 07:00 LEVC 250700Z 28004KT 9999 FEW012 11/10 Q1022 NOSIG
 
LEAB - Albacete (civ/Mi, Spain
Distance from station: O 95km
Actualización: 25/10/2021 09:00
Despejado
Despejado
 Viento del S
Viento: S 6 km/h
Temperatura: 3°C
Rocío: 2°C
Humedad: 93%
Barómetro: 1023 hPa
Resumen: Despejado
Visibility: greater than 10 km
2021/10/25 07:00 LEAB 250700Z 19003KT 160V220 CAVOK 03/02 Q1023 NOSIG
LERI - Alcantarilla(Sp-, Spain
Distance from station: SSO 100km
Actualización: 25/10/2021 09:00
Patches of fog, Poco nuboso
Patches of fog, Poco nuboso
 Viento del calm
Viento: Calma
Temperatura: 10°C
Rocío: 9°C
Humedad: 94%
Barómetro: 1022 hPa
Resumen: Patches of Fog
Clouds: Poco nuboso
Visibility: 9 km
Cloud details: Poco nuboso 518 m
2021/10/25 07:00 LERI 250700Z 00000KT 9000 BCFG FEW017 10/09 Q1022 NOSIG
 
LELC - San Javier(Mil/C, Spain
Distance from station: S 113km
Actualización: 25/10/2021 09:00
Despejado
Despejado
 Viento del O
Viento: O 4 km/h
Temperatura: 12°C
Rocío: 12°C
Humedad: 100%
Barómetro: 1021 hPa
Resumen: Despejado
Visibility: greater than 10 km
2021/10/25 07:00 LELC 250700Z 26002KT CAVOK 12/12 Q1021 NOSIG
LEIB - Ibiza/Es Codola, Spain
Distance from station: E 186km
Actualización: 25/10/2021 09:00
Despejado
Despejado
 Viento del calm
Viento: Calma
Temperatura: 13°C
Rocío: 11°C
Humedad: 88%
Barómetro: 1021 hPa
Resumen: Despejado
Visibility: greater than 10 km
2021/10/25 07:00 LEIB 250700Z 00000KT CAVOK 13/11 Q1021 NOSIG
 
LEAM - Almeria Airport, Spain
Distance from station: SSO 256km
Actualización: 25/10/2021 09:00
Despejado
Despejado
 Viento del NNO
Viento: NNO 15 km/h
Temperatura: 16°C
Rocío: 12°C
Humedad: 77%
Barómetro: 1021 hPa
Resumen: Despejado
Visibility: greater than 10 km
2021/10/25 07:00 LEAM 250700Z 34008KT CAVOK 16/12 Q1021
LEMD - Madrid/Barajas, Spain
Distance from station: NO 305km
Actualización: 25/10/2021 09:00
Despejado
Despejado
 Viento del SSO
Viento: SSO 2 km/h
Temperatura: 3°C
Rocío: 1°C
Humedad: 87%
Barómetro: 1022 hPa
Resumen: Despejado
Visibility: greater than 10 km
2021/10/25 07:00 LEMD 250700Z 21001KT CAVOK 03/01 Q1022 NOSIG
 
LEPA - Palma De Mallorc, Spain
Distance from station: ENE 313km
Actualización: 25/10/2021 09:00
Poco nuboso
Poco nuboso
 Viento del ENE
Viento: ENE 4 km/h
Temperatura: 13°C
Rocío: 12°C
Humedad: 94%
Barómetro: 1020 hPa
Clouds: Poco nuboso
Visibility: 10 km
Cloud details: Poco nuboso 762 m
2021/10/25 07:00 LEPA 250700Z 07002KT 9999 FEW025 13/12 Q1020 NOSIG